Island Lady — WAH8109 — position and weather

sailwx.info

Track history (hours):
 
Tides and Currents Weather Stations Pressure Air Temp Water Temp Dewpoint Dewpoint Depression Visibility Wind Speed Wind Dir Waves Ship Positions

Island Lady

Owner: SAFGE, CHARLES E, MIAMI, FL. More information available from US FCC via Universal Licensing System and Coast Guard Vessel Documentation Center.

Last reported at 2017-Nov-20 00:30 UTC. Time now 2017-Nov-22 16:45 UTC.
Position N 25°47' W 080°11'.

Type: Passenger vessel. MMSI: 367014880.

Date/timePositionNaut miles runAvg speedWind from/ knotsBaromVisibWave heightAir tempDewpointWater temp
2017-Nov-20 00:30N 25°47' W 080°11'2 3.3
2017-Nov-20 00:00N 25°47' W 080°09'1 2.7
2017-Nov-19 23:30N 25°46' W 080°09'2 4.5
2017-Nov-19 22:58N 25°47' W 080°11'0 0.0
2017-Nov-19 22:30N 25°47' W 080°11'2 4.8
2017-Nov-19 22:00N 25°46' W 080°09'1 2.2
2017-Nov-19 21:30N 25°47' W 080°09'2 3.3
2017-Nov-19 20:59N 25°47' W 080°11'0 0.0
2017-Nov-19 20:30N 25°47' W 080°11'2 4.9
2017-Nov-19 20:00N 25°46' W 080°09'1 2.1
2017-Nov-19 19:30N 25°47' W 080°09'2 2.8
2017-Nov-19 18:55N 25°47' W 080°11'0 0.0
2017-Nov-19 18:30N 25°47' W 080°11'2 3.3
2017-Nov-19 18:00N 25°47' W 080°09'1 1.9
2017-Nov-19 17:30N 25°46' W 080°09'2 4.2
2017-Nov-19 17:00N 25°47' W 080°11'0 0.0
2017-Nov-19 16:27N 25°47' W 080°11'0 0.0
2017-Nov-19 01:04N 25°47' W 080°11'0 0.0
2017-Nov-19 00:52N 25°47' W 080°11'0 0.0
2017-Nov-19 00:28N 25°47' W 080°11'2 4.8
2017-Nov-19 00:00N 25°46' W 080°09'1 2.1
2017-Nov-18 23:30N 25°47' W 080°10'2 3.0
2017-Nov-18 23:00N 25°47' W 080°11'0 0.0
2017-Nov-18 22:30N 25°47' W 080°11'1 2.9
2017-Nov-18 22:00N 25°47' W 080°10'1 2.5
2017-Nov-18 21:26N 25°46' W 080°09'2 4.4
2017-Nov-18 20:56N 25°47' W 080°11'0 0.0
2017-Nov-18 20:28N 25°47' W 080°11'2 4.3
2017-Nov-18 20:00N 25°46' W 080°09'1 1.9
2017-Nov-18 19:30N 25°47' W 080°10'1 3.0
2017-Nov-18 19:00N 25°47' W 080°11'0 0.0
2017-Nov-18 18:30N 25°47' W 080°11'2 4.4
2017-Nov-18 18:00N 25°46' W 080°09'1 2.0
2017-Nov-18 17:30N 25°47' W 080°09'2 2.6
2017-Nov-18 16:50N 25°47' W 080°11'0 0.0
2017-Nov-18 16:30N 25°47' W 080°11'0 0.0
2017-Nov-18 15:59N 25°47' W 080°11'0 0.0
2017-Nov-18 15:28N 25°47' W 080°11'0 0.0
2017-Nov-18 03:39N 25°47' W 080°11'0 0.2
2017-Nov-18 03:30N 25°47' W 080°11'2 3.8
2017-Nov-18 03:01N 25°46' W 080°09'1 1.9
2017-Nov-18 02:31N 25°46' W 080°10'1 2.1
2017-Nov-18 02:00N 25°47' W 080°11'0 0.0
2017-Nov-18 01:30N 25°47' W 080°11'2 3.4
2017-Nov-18 01:00N 25°47' W 080°09'1 2.3
2017-Nov-18 00:28N 25°46' W 080°09'2 4.5
2017-Nov-17 23:57N 25°47' W 080°11'0 0.0
2017-Nov-17 23:30N 25°47' W 080°11'0 0.0
2017-Nov-17 23:00N 25°47' W 080°11'2 4.6
2017-Nov-17 22:28N 25°46' W 080°08'1 2.4
2017-Nov-17 22:01N 25°47' W 080°09'2 3.2
2017-Nov-17 21:30N 25°47' W 080°11'1 1.6
2017-Nov-17 21:00N 25°46' W 080°10'1 1.9
2017-Nov-17 20:31N 25°47' W 080°10'1 2.4
2017-Nov-17 19:54N 25°47' W 080°11'0 0.0
2017-Nov-17 19:29N 25°47' W 080°11'2 4.2
2017-Nov-17 19:00N 25°46' W 080°09'1 1.9
2017-Nov-17 18:30N 25°47' W 080°09'2 2.9
2017-Nov-17 17:58N 25°47' W 080°11'0 0.0
2017-Nov-17 17:30N 25°47' W 080°11'2 4.9
2017-Nov-17 17:00N 25°46' W 080°09'2 3.9
2017-Nov-17 16:30N 25°47' W 080°10'1 1.0
2017-Nov-17 15:32N 25°47' W 080°11'0 0.0
2017-Nov-17 15:29N 25°47' W 080°11'0 0.0
2017-Nov-17 14:59N 25°47' W 080°11'0 0.0
2017-Nov-17 14:26N 25°47' W 080°11'0 0.0
2017-Nov-17 13:59N 25°47' W 080°11'0 0.0
2017-Nov-17 13:29N 25°47' W 080°11'0 0.0
2017-Nov-17 12:59N 25°47' W 080°11'0 0.0
2017-Nov-17 12:29N 25°47' W 080°11'0 0.0
2017-Nov-17 11:56N 25°47' W 080°11'0 0.0
2017-Nov-17 01:30N 25°47' W 080°11'2 3.2
2017-Nov-17 01:00N 25°47' W 080°09'1 1.9
2017-Nov-17 00:30N 25°46' W 080°09'2 3.4
2017-Nov-16 23:52N 25°47' W 080°11'0 0.2
2017-Nov-16 23:31N 25°47' W 080°11'2 4.6
2017-Nov-16 23:00N 25°46' W 080°09'1 2.3
2017-Nov-16 22:31N 25°47' W 080°09'2 3.1
2017-Nov-16 21:58N 25°47' W 080°11'0 0.0
2017-Nov-16 21:30N 25°47' W 080°11'2 4.4
2017-Nov-16 20:58N 25°46' W 080°09'1 2.4
2017-Nov-16 20:29N 25°47' W 080°09'2 0.1
2017-Nov-16 01:16N 25°47' W 080°11'1 3.6
2017-Nov-16 01:00N 25°46' W 080°10'1 2.1
2017-Nov-16 00:30N 25°47' W 080°09'2 3.0
2017-Nov-15 23:55N 25°47' W 080°11'0 0.0
2017-Nov-15 23:30N 25°47' W 080°11'2 4.2
2017-Nov-15 23:00N 25°46' W 080°09'1 2.1
2017-Nov-15 22:30N 25°47' W 080°10'1 2.2
2017-Nov-15 21:50N 25°47' W 080°11'0 0.0
2017-Nov-15 21:29N 25°47' W 080°11'2 4.6
2017-Nov-15 21:00N 25°46' W 080°09'1 2.2
2017-Nov-15 20:30N 25°47' W 080°10'1 2.7
2017-Nov-15 19:58N 25°47' W 080°11'0 0.0
2017-Nov-15 19:27N 25°47' W 080°11'2 3.9
2017-Nov-15 19:00N 25°46' W 080°09'1 1.9
2017-Nov-15 18:30N 25°47' W 080°10'1 2.7
2017-Nov-15 17:57N 25°47' W 080°11'0 0.0
2017-Nov-15 17:27N 25°47' W 080°11'2 3.5
2017-Nov-15 17:00N 25°46' W 080°10'1 1.8
2017-Nov-15 16:30N 25°47' W 080°10'1 2.8
2017-Nov-15 15:59N 25°47' W 080°11'0 0.0
2017-Nov-15 01:22N 25°47' W 080°11'2 4.2
2017-Nov-15 01:00N 25°46' W 080°10'1 1.8
2017-Nov-15 00:30N 25°47' W 080°10'2 2.7
2017-Nov-14 23:57N 25°47' W 080°11'0 0.0
2017-Nov-14 23:30N 25°47' W 080°11'2 4.6
2017-Nov-14 22:58N 25°46' W 080°09'1 2.7
2017-Nov-14 22:29N 25°47' W 080°09'2 3.1
2017-Nov-14 21:58N 25°47' W 080°11'0 0.0
2017-Nov-14 21:28N 25°47' W 080°11'2 3.8
2017-Nov-14 21:00N 25°46' W 080°09'1 1.7
2017-Nov-14 20:30N 25°47' W 080°09'2 3.1
2017-Nov-14 20:00N 25°47' W 080°11'0 0.0
2017-Nov-14 19:30N 25°47' W 080°11'2 4.9
2017-Nov-14 19:00N 25°46' W 080°09'1 2.1
2017-Nov-14 18:30N 25°47' W 080°09'2 3.0
2017-Nov-14 17:57N 25°47' W 080°11'0 0.0
2017-Nov-14 17:27N 25°47' W 080°11'2 4.4
2017-Nov-14 17:00N 25°46' W 080°09'1 2.0
2017-Nov-14 16:30N 25°47' W 080°10'1 2.3
2017-Nov-14 15:52N 25°47' W 080°11'0 0.0
2017-Nov-14 15:28N 25°47' W 080°11'0 0.0
2017-Nov-14 14:58N 25°47' W 080°11'0 0.0
2017-Nov-14 14:28N 25°47' W 080°11'0 0.0
2017-Nov-14 13:58N 25°47' W 080°11'0 0.0
2017-Nov-14 13:30N 25°47' W 080°11'0 0.0
2017-Nov-14 13:00N 25°47' W 080°11'0 0.2
2017-Nov-14 12:30N 25°47' W 080°11'0 0.2
2017-Nov-14 11:58N 25°47' W 080°11'0 0.0
2017-Nov-14 01:56N 25°47' W 080°11'0 0.2
2017-Nov-14 01:30N 25°47' W 080°11'2 4.1
2017-Nov-14 01:00N 25°46' W 080°09'1 2.8
2017-Nov-14 00:30N 25°47' W 080°10'1 1.9
2017-Nov-13 23:55N 25°47' W 080°11'0 0.0
2017-Nov-13 23:27N 25°47' W 080°11'2 4.7
2017-Nov-13 23:00N 25°46' W 080°09'1 2.0
2017-Nov-13 22:30N 25°47' W 080°09'2 2.8
2017-Nov-13 21:53N 25°47' W 080°11'2 0.1
2017-Nov-13 02:00N 25°46' W 080°09'1 1.8
2017-Nov-13 01:30N 25°47' W 080°10'1 2.8
2017-Nov-13 00:59N 25°47' W 080°11'0 0.0
2017-Nov-13 00:29N 25°47' W 080°11'0 0.0
2017-Nov-12 23:59N 25°47' W 080°11'0 0.0
2017-Nov-12 23:29N 25°47' W 080°11'2 3.4
2017-Nov-12 23:00N 25°47' W 080°09'1 2.6
2017-Nov-12 22:30N 25°46' W 080°09'2 0.1
2017-Nov-12 00:58N 25°47' W 080°11'0 0.0
2017-Nov-12 00:30N 25°47' W 080°11'3 5.0
2017-Nov-12 00:00N 25°46' W 080°08'1 2.5
2017-Nov-11 23:30N 25°47' W 080°09'2 2.7
2017-Nov-11 22:54N 25°47' W 080°11'0 0.0
2017-Nov-11 22:29N 25°47' W 080°11'2 1.6
2017-Nov-11 21:30N 25°47' W 080°09'2 2.9
2017-Nov-11 20:57N 25°47' W 080°11'0 0.4
2017-Nov-11 20:30N 25°47' W 080°11'1 3.0
2017-Nov-11 20:00N 25°47' W 080°09'1 1.8
2017-Nov-11 19:30N 25°46' W 080°10'2 2.6
2017-Nov-11 18:56N 25°47' W 080°11'0 0.0
2017-Nov-11 18:29N 25°47' W 080°11'2 4.5
2017-Nov-11 18:00N 25°46' W 080°09'1 2.0
2017-Nov-11 17:30N 25°47' W 080°09'2 2.3
2017-Nov-11 16:46N 25°47' W 080°11'0 0.0
2017-Nov-11 16:28N 25°47' W 080°11'0 0.0
2017-Nov-11 00:45N 25°47' W 080°11'0 0.0
2017-Nov-11 00:30N 25°47' W 080°11'2 4.6
2017-Nov-11 00:00N 25°46' W 080°09'1 2.2
2017-Nov-10 23:30N 25°47' W 080°09'2 2.9
2017-Nov-10 22:55N 25°47' W 080°11'0 0.0
2017-Nov-10 22:28N 25°47' W 080°11'2 3.6
2017-Nov-10 22:00N 25°46' W 080°10'1 1.8
2017-Nov-10 21:30N 25°47' W 080°10'1 2.9
2017-Nov-10 21:00N 25°47' W 080°11'0 0.0
2017-Nov-10 20:30N 25°47' W 080°11'2 3.3
2017-Nov-10 20:00N 25°46' W 080°10'1 1.8
2017-Nov-10 19:30N 25°47' W 080°09'2 2.9
2017-Nov-10 18:59N 25°47' W 080°11'0 0.0
2017-Nov-10 18:28N 25°47' W 080°11'2 3.6
2017-Nov-10 18:00N 25°47' W 080°09'1 2.0
2017-Nov-10 17:30N 25°46' W 080°09'2 4.1
2017-Nov-10 16:58N 25°47' W 080°11'0 0.0
2017-Nov-10 16:28N 25°47' W 080°11'0 0.0
2017-Nov-10 00:56N 25°47' W 080°11'  
Track history (hours):
 
Tides and Currents Weather Stations Pressure Air Temp Water Temp Dewpoint Dewpoint Depression Visibility Wind Speed Wind Dir Waves Ship Positions

Island Lady

Owner: SAFGE, CHARLES E, MIAMI, FL. More information available from US FCC via Universal Licensing System and Coast Guard Vessel Documentation Center.

Last reported at 2017-Nov-20 00:30 UTC. Time now 2017-Nov-22 16:45 UTC.
Position N 25°47' W 080°11'.

Type: Passenger vessel. MMSI: 367014880.

Date/timePositionNaut miles runAvg speedWind from/ knotsBaromVisibWave heightAir tempDewpointWater temp
2017-Nov-20 00:30N 25°47' W 080°11'2 3.3
2017-Nov-20 00:00N 25°47' W 080°09'1 2.7
2017-Nov-19 23:30N 25°46' W 080°09'2 4.5
2017-Nov-19 22:58N 25°47' W 080°11'0 0.0
2017-Nov-19 22:30N 25°47' W 080°11'2 4.8
2017-Nov-19 22:00N 25°46' W 080°09'1 2.2
2017-Nov-19 21:30N 25°47' W 080°09'2 3.3
2017-Nov-19 20:59N 25°47' W 080°11'0 0.0
2017-Nov-19 20:30N 25°47' W 080°11'2 4.9
2017-Nov-19 20:00N 25°46' W 080°09'1 2.1
2017-Nov-19 19:30N 25°47' W 080°09'2 2.8
2017-Nov-19 18:55N 25°47' W 080°11'0 0.0
2017-Nov-19 18:30N 25°47' W 080°11'2 3.3
2017-Nov-19 18:00N 25°47' W 080°09'1 1.9
2017-Nov-19 17:30N 25°46' W 080°09'2 4.2
2017-Nov-19 17:00N 25°47' W 080°11'0 0.0
2017-Nov-19 16:27N 25°47' W 080°11'0 0.0
2017-Nov-19 01:04N 25°47' W 080°11'0 0.0
2017-Nov-19 00:52N 25°47' W 080°11'0 0.0
2017-Nov-19 00:28N 25°47' W 080°11'2 4.8
2017-Nov-19 00:00N 25°46' W 080°09'1 2.1
2017-Nov-18 23:30N 25°47' W 080°10'2 3.0
2017-Nov-18 23:00N 25°47' W 080°11'0 0.0
2017-Nov-18 22:30N 25°47' W 080°11'1 2.9
2017-Nov-18 22:00N 25°47' W 080°10'1 2.5
2017-Nov-18 21:26N 25°46' W 080°09'2 4.4
2017-Nov-18 20:56N 25°47' W 080°11'0 0.0
2017-Nov-18 20:28N 25°47' W 080°11'2 4.3
2017-Nov-18 20:00N 25°46' W 080°09'1 1.9
2017-Nov-18 19:30N 25°47' W 080°10'1 3.0
2017-Nov-18 19:00N 25°47' W 080°11'0 0.0
2017-Nov-18 18:30N 25°47' W 080°11'2 4.4
2017-Nov-18 18:00N 25°46' W 080°09'1 2.0
2017-Nov-18 17:30N 25°47' W 080°09'2 2.6
2017-Nov-18 16:50N 25°47' W 080°11'0 0.0
2017-Nov-18 16:30N 25°47' W 080°11'0 0.0
2017-Nov-18 15:59N 25°47' W 080°11'0 0.0
2017-Nov-18 15:28N 25°47' W 080°11'0 0.0
2017-Nov-18 03:39N 25°47' W 080°11'0 0.2
2017-Nov-18 03:30N 25°47' W 080°11'2 3.8
2017-Nov-18 03:01N 25°46' W 080°09'1 1.9
2017-Nov-18 02:31N 25°46' W 080°10'1 2.1
2017-Nov-18 02:00N 25°47' W 080°11'0 0.0
2017-Nov-18 01:30N 25°47' W 080°11'2 3.4
2017-Nov-18 01:00N 25°47' W 080°09'1 2.3
2017-Nov-18 00:28N 25°46' W 080°09'2 4.5
2017-Nov-17 23:57N 25°47' W 080°11'0 0.0
2017-Nov-17 23:30N 25°47' W 080°11'0 0.0
2017-Nov-17 23:00N 25°47' W 080°11'2 4.6
2017-Nov-17 22:28N 25°46' W 080°08'1 2.4
2017-Nov-17 22:01N 25°47' W 080°09'2 3.2
2017-Nov-17 21:30N 25°47' W 080°11'1 1.6
2017-Nov-17 21:00N 25°46' W 080°10'1 1.9
2017-Nov-17 20:31N 25°47' W 080°10'1 2.4
2017-Nov-17 19:54N 25°47' W 080°11'0 0.0
2017-Nov-17 19:29N 25°47' W 080°11'2 4.2
2017-Nov-17 19:00N 25°46' W 080°09'1 1.9
2017-Nov-17 18:30N 25°47' W 080°09'2 2.9
2017-Nov-17 17:58N 25°47' W 080°11'0 0.0
2017-Nov-17 17:30N 25°47' W 080°11'2 4.9
2017-Nov-17 17:00N 25°46' W 080°09'2 3.9
2017-Nov-17 16:30N 25°47' W 080°10'1 1.0
2017-Nov-17 15:32N 25°47' W 080°11'0 0.0
2017-Nov-17 15:29N 25°47' W 080°11'0 0.0
2017-Nov-17 14:59N 25°47' W 080°11'0 0.0
2017-Nov-17 14:26N 25°47' W 080°11'0 0.0
2017-Nov-17 13:59N 25°47' W 080°11'0 0.0
2017-Nov-17 13:29N 25°47' W 080°11'0 0.0
2017-Nov-17 12:59N 25°47' W 080°11'0 0.0
2017-Nov-17 12:29N 25°47' W 080°11'0 0.0
2017-Nov-17 11:56N 25°47' W 080°11'0 0.0
2017-Nov-17 01:30N 25°47' W 080°11'2 3.2
2017-Nov-17 01:00N 25°47' W 080°09'1 1.9
2017-Nov-17 00:30N 25°46' W 080°09'2 3.4
2017-Nov-16 23:52N 25°47' W 080°11'0 0.2
2017-Nov-16 23:31N 25°47' W 080°11'2 4.6
2017-Nov-16 23:00N 25°46' W 080°09'1 2.3
2017-Nov-16 22:31N 25°47' W 080°09'2 3.1
2017-Nov-16 21:58N 25°47' W 080°11'0 0.0
2017-Nov-16 21:30N 25°47' W 080°11'2 4.4
2017-Nov-16 20:58N 25°46' W 080°09'1 2.4
2017-Nov-16 20:29N 25°47' W 080°09'2 0.1
2017-Nov-16 01:16N 25°47' W 080°11'1 3.6
2017-Nov-16 01:00N 25°46' W 080°10'1 2.1
2017-Nov-16 00:30N 25°47' W 080°09'2 3.0
2017-Nov-15 23:55N 25°47' W 080°11'0 0.0
2017-Nov-15 23:30N 25°47' W 080°11'2 4.2
2017-Nov-15 23:00N 25°46' W 080°09'1 2.1
2017-Nov-15 22:30N 25°47' W 080°10'1 2.2
2017-Nov-15 21:50N 25°47' W 080°11'0 0.0
2017-Nov-15 21:29N 25°47' W 080°11'2 4.6
2017-Nov-15 21:00N 25°46' W 080°09'1 2.2
2017-Nov-15 20:30N 25°47' W 080°10'1 2.7
2017-Nov-15 19:58N 25°47' W 080°11'0 0.0
2017-Nov-15 19:27N 25°47' W 080°11'2 3.9
2017-Nov-15 19:00N 25°46' W 080°09'1 1.9
2017-Nov-15 18:30N 25°47' W 080°10'1 2.7
2017-Nov-15 17:57N 25°47' W 080°11'0 0.0
2017-Nov-15 17:27N 25°47' W 080°11'2 3.5
2017-Nov-15 17:00N 25°46' W 080°10'1 1.8
2017-Nov-15 16:30N 25°47' W 080°10'1 2.8
2017-Nov-15 15:59N 25°47' W 080°11'0 0.0
2017-Nov-15 01:22N 25°47' W 080°11'2 4.2
2017-Nov-15 01:00N 25°46' W 080°10'1 1.8
2017-Nov-15 00:30N 25°47' W 080°10'2 2.7
2017-Nov-14 23:57N 25°47' W 080°11'0 0.0
2017-Nov-14 23:30N 25°47' W 080°11'2 4.6
2017-Nov-14 22:58N 25°46' W 080°09'1 2.7
2017-Nov-14 22:29N 25°47' W 080°09'2 3.1
2017-Nov-14 21:58N 25°47' W 080°11'0 0.0
2017-Nov-14 21:28N 25°47' W 080°11'2 3.8
2017-Nov-14 21:00N 25°46' W 080°09'1 1.7
2017-Nov-14 20:30N 25°47' W 080°09'2 3.1
2017-Nov-14 20:00N 25°47' W 080°11'0 0.0
2017-Nov-14 19:30N 25°47' W 080°11'2 4.9
2017-Nov-14 19:00N 25°46' W 080°09'1 2.1
2017-Nov-14 18:30N 25°47' W 080°09'2 3.0
2017-Nov-14 17:57N 25°47' W 080°11'0 0.0
2017-Nov-14 17:27N 25°47' W 080°11'2 4.4
2017-Nov-14 17:00N 25°46' W 080°09'1 2.0
2017-Nov-14 16:30N 25°47' W 080°10'1 2.3
2017-Nov-14 15:52N 25°47' W 080°11'0 0.0
2017-Nov-14 15:28N 25°47' W 080°11'0 0.0
2017-Nov-14 14:58N 25°47' W 080°11'0 0.0
2017-Nov-14 14:28N 25°47' W 080°11'0 0.0
2017-Nov-14 13:58N 25°47' W 080°11'0 0.0
2017-Nov-14 13:30N 25°47' W 080°11'0 0.0
2017-Nov-14 13:00N 25°47' W 080°11'0 0.2
2017-Nov-14 12:30N 25°47' W 080°11'0 0.2
2017-Nov-14 11:58N 25°47' W 080°11'0 0.0
2017-Nov-14 01:56N 25°47' W 080°11'0 0.2
2017-Nov-14 01:30N 25°47' W 080°11'2 4.1
2017-Nov-14 01:00N 25°46' W 080°09'1 2.8
2017-Nov-14 00:30N 25°47' W 080°10'1 1.9
2017-Nov-13 23:55N 25°47' W 080°11'0 0.0
2017-Nov-13 23:27N 25°47' W 080°11'2 4.7
2017-Nov-13 23:00N 25°46' W 080°09'1 2.0
2017-Nov-13 22:30N 25°47' W 080°09'2 2.8
2017-Nov-13 21:53N 25°47' W 080°11'2 0.1
2017-Nov-13 02:00N 25°46' W 080°09'1 1.8
2017-Nov-13 01:30N 25°47' W 080°10'1 2.8
2017-Nov-13 00:59N 25°47' W 080°11'0 0.0
2017-Nov-13 00:29N 25°47' W 080°11'0 0.0
2017-Nov-12 23:59N 25°47' W 080°11'0 0.0
2017-Nov-12 23:29N 25°47' W 080°11'2 3.4
2017-Nov-12 23:00N 25°47' W 080°09'1 2.6
2017-Nov-12 22:30N 25°46' W 080°09'2 0.1
2017-Nov-12 00:58N 25°47' W 080°11'0 0.0
2017-Nov-12 00:30N 25°47' W 080°11'3 5.0
2017-Nov-12 00:00N 25°46' W 080°08'1 2.5
2017-Nov-11 23:30N 25°47' W 080°09'2 2.7
2017-Nov-11 22:54N 25°47' W 080°11'0 0.0
2017-Nov-11 22:29N 25°47' W 080°11'2 1.6
2017-Nov-11 21:30N 25°47' W 080°09'2 2.9
2017-Nov-11 20:57N 25°47' W 080°11'0 0.4
2017-Nov-11 20:30N 25°47' W 080°11'1 3.0
2017-Nov-11 20:00N 25°47' W 080°09'1 1.8
2017-Nov-11 19:30N 25°46' W 080°10'2 2.6
2017-Nov-11 18:56N 25°47' W 080°11'0 0.0
2017-Nov-11 18:29N 25°47' W 080°11'2 4.5
2017-Nov-11 18:00N 25°46' W 080°09'1 2.0
2017-Nov-11 17:30N 25°47' W 080°09'2 2.3
2017-Nov-11 16:46N 25°47' W 080°11'0 0.0
2017-Nov-11 16:28N 25°47' W 080°11'0 0.0
2017-Nov-11 00:45N 25°47' W 080°11'0 0.0
2017-Nov-11 00:30N 25°47' W 080°11'2 4.6
2017-Nov-11 00:00N 25°46' W 080°09'1 2.2
2017-Nov-10 23:30N 25°47' W 080°09'2 2.9
2017-Nov-10 22:55N 25°47' W 080°11'0 0.0
2017-Nov-10 22:28N 25°47' W 080°11'2 3.6
2017-Nov-10 22:00N 25°46' W 080°10'1 1.8
2017-Nov-10 21:30N 25°47' W 080°10'1 2.9
2017-Nov-10 21:00N 25°47' W 080°11'0 0.0
2017-Nov-10 20:30N 25°47' W 080°11'2 3.3
2017-Nov-10 20:00N 25°46' W 080°10'1 1.8
2017-Nov-10 19:30N 25°47' W 080°09'2 2.9
2017-Nov-10 18:59N 25°47' W 080°11'0 0.0
2017-Nov-10 18:28N 25°47' W 080°11'2 3.6
2017-Nov-10 18:00N 25°47' W 080°09'1 2.0
2017-Nov-10 17:30N 25°46' W 080°09'2 4.1
2017-Nov-10 16:58N 25°47' W 080°11'0 0.0
2017-Nov-10 16:28N 25°47' W 080°11'0 0.0
2017-Nov-10 00:56N 25°47' W 080°11'  

Dump ship's entire track history